createdAt,value
2019-05-25T09:36:15.658Z,5.43
2019-05-25T09:38:44.053Z,4.73
2019-05-25T09:41:12.469Z,3.93
2019-05-25T09:43:40.873Z,3.13
2019-05-25T09:46:09.297Z,3.60
2019-05-25T09:48:38.452Z,3.40
2019-05-25T09:51:15.345Z,3.63
2019-05-25T09:53:37.495Z,5.23
2019-05-25T09:56:05.904Z,4.50
2019-05-25T09:58:34.297Z,4.60
2019-05-25T10:01:03.120Z,4.03
2019-05-25T10:03:31.621Z,4.23
2019-05-25T10:06:00.048Z,3.97
2019-05-25T10:08:28.514Z,4.67
2019-05-25T10:10:56.925Z,3.33
2019-05-25T10:13:25.325Z,3.07
2019-05-25T10:15:53.794Z,5.10
2019-05-25T10:18:22.197Z,5.80
2019-05-25T10:20:50.611Z,3.47
2019-05-25T10:23:19.014Z,5.17
2019-05-25T10:25:47.689Z,4.70
2019-05-25T10:28:16.153Z,4.50
2019-05-25T10:30:44.624Z,4.20
2019-05-25T10:33:13.346Z,4.93
2019-05-25T10:35:41.769Z,4.63
2019-05-25T10:38:10.173Z,3.97
2019-05-25T10:40:38.912Z,5.47
2019-05-25T10:43:07.305Z,3.20
2019-05-25T10:45:35.979Z,2.90
2019-05-25T10:48:04.869Z,3.33
2019-05-25T10:50:33.283Z,3.60
2019-05-25T10:53:01.687Z,3.30
2019-05-25T10:55:30.103Z,3.83
2019-05-25T10:57:58.669Z,4.13
2019-05-25T11:00:27.317Z,3.50
2019-05-25T11:02:55.733Z,5.10
2019-05-25T11:05:24.388Z,3.83
2019-05-25T11:07:53.073Z,2.90
2019-05-25T11:10:21.649Z,3.10
2019-05-25T11:12:50.354Z,3.20
2019-05-25T11:15:18.887Z,4.20
2019-05-25T11:17:47.288Z,4.13
2019-05-25T11:20:16.539Z,4.33
2019-05-25T11:22:44.939Z,4.77
2019-05-25T11:25:14.189Z,3.33
2019-05-25T11:27:42.589Z,3.50
2019-05-25T11:30:13.042Z,4.40
2019-05-25T11:32:41.522Z,4.20
2019-05-25T11:35:10.169Z,4.50
2019-05-25T11:37:38.970Z,3.10
2019-05-25T11:40:09.536Z,4.00
2019-05-25T11:42:37.993Z,3.83
2019-05-25T11:45:07.541Z,4.10
2019-05-25T11:47:35.971Z,4.17
2019-05-25T11:50:07.568Z,3.00
2019-05-25T11:52:35.982Z,3.13
2019-05-25T11:55:07.511Z,2.83
2019-05-25T11:57:35.905Z,3.23
2019-05-25T12:00:23.813Z,3.57
2019-05-25T12:02:39.681Z,3.90
2019-05-25T12:05:09.460Z,3.60
2019-05-25T12:07:37.866Z,3.50
2019-05-25T12:10:07.336Z,2.97
2019-05-25T12:12:36.069Z,3.23
2019-05-25T12:15:09.262Z,3.07
2019-05-25T12:17:37.720Z,2.70
2019-05-25T12:20:06.970Z,3.57
2019-05-25T12:22:35.665Z,3.70
2019-05-25T12:25:06.313Z,3.00
2019-05-25T12:27:35.070Z,2.83
2019-05-25T12:30:05.556Z,4.43
2019-05-25T12:32:33.951Z,3.10
2019-05-25T12:35:02.665Z,2.70
2019-05-25T12:37:31.354Z,3.60
2019-05-25T12:39:59.748Z,2.90
2019-05-25T12:42:28.162Z,3.97
2019-05-25T12:44:56.811Z,3.60
2019-05-25T12:47:25.218Z,3.03
2019-05-25T12:49:53.881Z,3.90
2019-05-25T12:52:22.292Z,3.30
2019-05-25T12:54:50.692Z,3.37
2019-05-25T12:57:19.283Z,3.70
2019-05-25T12:59:47.922Z,3.07
2019-05-25T13:02:16.618Z,2.60
2019-05-25T13:04:45.013Z,2.67
2019-05-25T13:07:13.692Z,3.67
2019-05-25T13:09:42.377Z,2.93
2019-05-25T13:12:11.062Z,2.70
2019-05-25T13:14:39.456Z,2.73
2019-05-25T13:17:07.869Z,2.80
2019-05-25T13:19:36.518Z,3.97
2019-05-25T13:22:04.962Z,3.00
2019-05-25T13:24:33.696Z,2.40
2019-05-25T13:27:02.112Z,2.73
2019-05-25T13:29:30.509Z,2.47
2019-05-25T13:31:58.917Z,3.30
2019-05-25T13:34:27.321Z,2.20
2019-05-25T13:36:56.018Z,3.00
2019-05-25T13:39:24.703Z,2.97
2019-05-25T13:41:53.109Z,2.30
2019-05-25T13:44:21.775Z,2.70
2019-05-25T13:46:50.681Z,2.80
2019-05-25T13:49:19.085Z,3.00
2019-05-25T13:51:47.498Z,3.20
2019-05-25T13:54:16.238Z,2.90
2019-05-25T13:56:44.644Z,3.30
2019-05-25T13:59:13.212Z,2.70
2019-05-25T14:01:41.691Z,2.20
2019-05-25T14:04:10.090Z,2.57
2019-05-25T14:06:38.495Z,2.00
2019-05-25T14:09:07.059Z,2.60
2019-05-25T14:11:35.541Z,2.70
2019-05-25T14:14:04.209Z,3.20
2019-05-25T14:16:32.633Z,2.60
2019-05-25T14:19:01.033Z,2.93
2019-05-25T14:21:29.512Z,2.80
2019-05-25T14:23:57.912Z,2.57
2019-05-25T14:26:26.334Z,2.83
2019-05-25T14:28:54.730Z,2.00
2019-05-25T14:31:23.155Z,2.13
2019-05-25T14:33:51.901Z,2.20
2019-05-25T14:36:20.310Z,2.97
2019-05-25T14:38:48.716Z,2.97
2019-05-25T14:41:17.450Z,2.53
2019-05-25T14:43:46.125Z,2.13
2019-05-25T14:46:26.825Z,3.03
2019-05-25T14:48:44.937Z,2.27
2019-05-25T14:51:13.349Z,2.33
2019-05-25T14:53:42.011Z,2.30
2019-05-25T14:56:10.426Z,2.10
2019-05-25T14:58:39.157Z,2.90
2019-05-25T15:01:07.995Z,2.50
2019-05-25T15:03:36.764Z,2.63
2019-05-25T15:06:05.177Z,2.70
2019-05-25T15:08:33.578Z,2.50
2019-05-25T15:11:02.337Z,2.60
2019-05-25T15:13:30.755Z,2.40
2019-05-25T15:15:59.155Z,2.60
2019-05-25T15:18:27.642Z,2.17
2019-05-25T15:20:56.054Z,2.30
2019-05-25T15:23:24.453Z,2.23
2019-05-25T15:25:52.848Z,3.13
2019-05-25T15:28:21.262Z,2.97
2019-05-25T15:30:49.656Z,2.43
2019-05-25T15:33:18.379Z,2.90
2019-05-25T15:35:46.781Z,3.20
2019-05-25T15:38:15.468Z,2.57
2019-05-25T15:40:43.862Z,2.87
2019-05-25T15:43:12.626Z,2.40
2019-05-25T15:45:41.030Z,2.23
2019-05-25T15:48:09.517Z,2.60
2019-05-25T15:50:38.187Z,2.90
2019-05-25T15:53:06.705Z,2.80
2019-05-25T15:55:35.140Z,2.10
2019-05-25T15:58:03.630Z,3.10
2019-05-25T16:00:50.062Z,2.93
2019-05-25T16:03:20.004Z,4.03
2019-05-25T16:05:48.925Z,4.10
2019-05-25T16:08:18.985Z,3.30
2019-05-25T16:10:53.730Z,3.10
2019-05-25T16:13:22.140Z,3.93
2019-05-25T16:15:50.546Z,3.10
2019-05-25T16:18:18.950Z,3.50
2019-05-25T16:20:47.352Z,2.90
2019-05-25T16:23:15.773Z,2.97
2019-05-25T16:25:44.498Z,2.70
2019-05-25T16:28:12.938Z,2.90
2019-05-25T16:30:41.337Z,3.30
2019-05-25T16:33:12.856Z,2.33
2019-05-25T16:35:40.708Z,2.30
2019-05-25T16:38:09.245Z,2.43
2019-05-25T16:40:38.361Z,2.80
2019-05-25T16:43:06.768Z,2.37
2019-05-25T16:45:35.173Z,3.13
2019-05-25T16:48:03.953Z,2.30
2019-05-25T16:50:32.618Z,2.20
2019-05-25T16:53:01.209Z,2.13
2019-05-25T16:55:29.609Z,2.30
2019-05-25T16:57:58.096Z,2.43
2019-05-25T17:00:28.222Z,2.17
2019-05-25T17:02:58.825Z,2.90
2019-05-25T17:05:27.939Z,2.90
2019-05-25T17:07:56.954Z,2.20
2019-05-25T17:10:25.425Z,2.07
2019-05-25T17:12:53.833Z,2.40
2019-05-25T17:15:22.481Z,2.00
2019-05-25T17:17:50.992Z,2.60
2019-05-25T17:20:19.924Z,2.37
2019-05-25T17:22:48.654Z,2.43
2019-05-25T17:25:17.190Z,2.00
2019-05-25T17:27:45.605Z,3.67
2019-05-25T17:30:15.063Z,3.33
2019-05-25T17:32:43.721Z,1.90
2019-05-25T17:35:13.573Z,2.60
2019-05-25T17:37:41.983Z,2.30
2019-05-25T17:40:10.566Z,2.37
2019-05-25T17:42:39.081Z,1.90
2019-05-25T17:45:07.815Z,1.83
2019-05-25T17:47:36.296Z,2.30
2019-05-25T17:50:06.368Z,3.87
2019-05-25T17:52:34.837Z,3.63
2019-05-25T17:55:04.703Z,3.20
2019-05-25T17:57:33.495Z,1.90
2019-05-25T18:00:01.906Z,2.40
2019-05-25T18:02:30.651Z,1.90
2019-05-25T18:04:59.064Z,2.27
2019-05-25T18:07:27.829Z,2.10
2019-05-25T18:09:56.228Z,1.93
2019-05-25T18:12:24.645Z,2.10
2019-05-25T18:14:53.055Z,2.07
2019-05-25T18:17:21.458Z,2.47
2019-05-25T18:19:49.869Z,2.20
2019-05-25T18:22:18.630Z,1.83
2019-05-25T18:24:47.024Z,1.60
2019-05-25T18:27:15.445Z,2.00
2019-05-25T18:29:43.871Z,1.77
2019-05-25T18:32:12.360Z,2.80
2019-05-25T18:34:40.775Z,2.57
2019-05-25T18:37:09.161Z,1.80
2019-05-25T18:39:37.564Z,2.00
2019-05-25T18:42:06.707Z,1.90
2019-05-25T18:44:35.121Z,2.63
2019-05-25T18:47:03.524Z,2.40
2019-05-25T18:49:31.933Z,2.20
2019-05-25T18:52:00.683Z,2.00
2019-05-25T18:54:29.089Z,2.10
2019-05-25T18:56:57.489Z,2.27
2019-05-25T18:59:26.213Z,2.57
2019-05-25T19:01:54.647Z,2.10
2019-05-25T19:04:42.287Z,2.47
2019-05-25T19:06:53.231Z,2.30
2019-05-25T19:09:21.639Z,2.37
2019-05-25T19:11:50.386Z,2.30
2019-05-25T19:14:19.189Z,2.57
2019-05-25T19:16:47.585Z,2.13
2019-05-25T19:19:15.995Z,2.50
2019-05-25T19:21:44.405Z,2.30
2019-05-25T19:24:13.109Z,2.50
2019-05-25T19:26:41.830Z,2.63
2019-05-25T19:29:10.609Z,2.50
2019-05-25T19:31:39.402Z,2.73
2019-05-25T19:34:08.077Z,2.43
2019-05-25T19:36:36.865Z,2.40
2019-05-25T19:39:07.854Z,2.17
2019-05-25T19:41:36.253Z,2.47
2019-05-25T19:44:04.904Z,2.40
2019-05-25T19:46:33.307Z,3.07
2019-05-25T19:49:01.773Z,2.57
2019-05-25T19:51:30.185Z,2.87
2019-05-25T19:53:58.597Z,2.70
2019-05-25T19:56:26.998Z,3.20
2019-05-25T19:58:55.680Z,2.80
2019-05-25T20:01:24.391Z,2.83
2019-05-25T20:03:57.000Z,2.77
2019-05-25T20:06:23.315Z,6.63
2019-05-25T20:08:51.969Z,17.87
2019-05-25T20:11:20.661Z,19.53
2019-05-25T20:13:49.081Z,13.70
2019-05-25T20:16:17.497Z,19.00
2019-05-25T20:18:45.922Z,10.93
2019-05-25T20:21:14.350Z,13.93
2019-05-25T20:23:42.768Z,4.83
2019-05-25T20:26:11.161Z,5.20
2019-05-25T20:28:39.585Z,3.90
2019-05-25T20:31:08.095Z,4.40
2019-05-25T20:33:36.777Z,4.07
2019-05-25T20:36:24.846Z,4.10
2019-05-25T20:38:53.269Z,4.63
2019-05-25T20:41:21.664Z,9.17
2019-05-25T20:43:50.121Z,5.97
2019-05-25T20:46:18.549Z,5.43
2019-05-25T20:49:06.306Z,7.20
2019-05-25T20:51:34.716Z,7.70
2019-05-25T20:54:03.130Z,6.10
2019-05-25T20:56:31.565Z,4.57
2019-05-25T20:58:59.992Z,3.73
2019-05-25T21:01:28.397Z,3.90
2019-05-25T21:03:56.812Z,4.50
2019-05-25T21:06:25.493Z,6.93
2019-05-25T21:08:53.904Z,7.60
2019-05-25T21:11:22.312Z,9.60
2019-05-25T21:13:50.746Z,28.40
2019-05-25T21:16:19.438Z,15.50
2019-05-25T21:18:47.862Z,7.00
2019-05-25T21:21:16.257Z,6.80
2019-05-25T21:23:44.666Z,7.90
2019-05-25T21:26:13.069Z,5.50
2019-05-25T21:28:41.484Z,7.17
2019-05-25T21:31:09.882Z,6.07
2019-05-25T21:33:38.292Z,6.17
2019-05-25T21:36:08.855Z,6.60
2019-05-25T21:38:36.840Z,4.90
2019-05-25T21:41:05.245Z,6.30
2019-05-25T21:43:34.208Z,6.50
2019-05-25T21:46:02.617Z,10.50
2019-05-25T21:48:31.285Z,6.27
2019-05-25T21:50:59.703Z,8.00
2019-05-25T21:53:28.176Z,8.20
2019-05-25T21:55:56.593Z,7.13
2019-05-25T21:58:24.993Z,6.00
2019-05-25T22:00:53.805Z,9.00
2019-05-25T22:03:22.485Z,7.10
2019-05-25T22:05:51.191Z,7.70
2019-05-25T22:08:19.869Z,12.13
2019-05-25T22:10:48.281Z,8.20
2019-05-25T22:13:28.081Z,6.00
2019-05-25T22:15:46.816Z,13.63
2019-05-25T22:18:15.228Z,17.80
2019-05-25T22:20:43.934Z,18.87
2019-05-25T22:23:12.338Z,27.57
2019-05-25T22:25:41.102Z,23.70
2019-05-25T22:28:09.524Z,60.57
2019-05-25T22:30:38.277Z,37.83
2019-05-25T22:33:06.680Z,22.13
2019-05-25T22:35:35.097Z,20.60
2019-05-25T22:38:03.849Z,29.07
2019-05-25T22:40:32.539Z,20.53
2019-05-25T22:43:01.217Z,27.20
2019-05-25T22:45:29.635Z,21.93
2019-05-25T22:47:58.046Z,13.13
2019-05-25T22:50:26.457Z,21.90
2019-05-25T22:52:54.865Z,23.67
2019-05-25T22:55:23.546Z,26.93
2019-05-25T22:57:52.245Z,10.60
2019-05-25T23:00:20.892Z,7.70
2019-05-25T23:02:49.541Z,7.20
2019-05-25T23:05:18.290Z,9.60
2019-05-25T23:07:46.986Z,19.03
2019-05-25T23:10:16.017Z,21.00
2019-05-25T23:12:44.420Z,10.23
2019-05-25T23:15:13.417Z,8.17
2019-05-25T23:17:41.818Z,7.93
2019-05-25T23:20:10.869Z,7.07
2019-05-25T23:22:39.336Z,6.90
2019-05-25T23:25:08.910Z,6.27
2019-05-25T23:27:37.639Z,7.57
2019-05-25T23:30:07.589Z,7.57
2019-05-25T23:32:36.005Z,6.87
2019-05-25T23:35:05.357Z,7.50
2019-05-25T23:37:33.900Z,7.43
2019-05-25T23:40:02.317Z,7.33
2019-05-25T23:42:30.721Z,7.27
2019-05-25T23:44:59.128Z,7.07
2019-05-25T23:47:27.542Z,7.10
2019-05-25T23:49:59.523Z,8.10
2019-05-25T23:52:26.148Z,6.90
2019-05-25T23:54:54.690Z,6.90
2019-05-25T23:57:23.545Z,6.77
2019-05-25T23:59:51.964Z,6.33
